Terminal Aerodrome Forecast
Issued by NWS Mt. Holly, NJ

Home | Current Version | Previous Version | Text Only | Print | Product List | Glossary On
Versions: 1 2 3 4 5 6 7 8 9 10 11 12 13 14 15 16 17 18 19 20 21 22 23 24 25 26 27 28 29 30 31 32 33 34 35 36 37 38 39 40 41 42 43 44 45 46 47 48 49 50
000
FTAK31 PANC 250100 AAA
TAFABE
TAF AMD
PABE 250100Z 2501/2524 21017G24KT 6SM -RA BR SCT015 BKN025
      TEMPO 2501/2505 3SM RA BR BKN015
     FM250600 20015G22KT P6SM -RASN SCT010 BKN020
     FM251200 20008KT 6SM -SHSN SCT007 BKN015 OVC030
     FM251800 22016KT P6SM -SHRASN BKN007 OVC015
     FM252100 25018KT P6SM -SHRA SCT007 OVC015=

USA.gov is the U.S. government's official web portal to all federal, state and local government web resources and services.